sensor_id;sensor_type;location;lat;lon;timestamp;temperature;humidity
53310;DHT22;39197;53.200;5.792;2023-02-01T00:00:12;6.50;99.90
53310;DHT22;39197;53.200;5.792;2023-02-01T00:02:38;6.60;99.90
53310;DHT22;39197;53.200;5.792;2023-02-01T00:05:09;6.60;99.90
53310;DHT22;39197;53.200;5.792;2023-02-01T00:07:36;6.60;99.90
53310;DHT22;39197;53.200;5.792;2023-02-01T00:10:03;6.60;99.90
53310;DHT22;39197;53.200;5.792;2023-02-01T00:12:30;6.60;99.90
53310;DHT22;39197;53.200;5.792;2023-02-01T00:14:56;6.60;99.90
53310;DHT22;39197;53.200;5.792;2023-02-01T00:17:22;6.60;99.90
53310;DHT22;39197;53.200;5.792;2023-02-01T00:19:47;6.60;99.90
53310;DHT22;39197;53.200;5.792;2023-02-01T00:22:13;6.50;99.90
53310;DHT22;39197;53.200;5.792;2023-02-01T00:24:38;6.50;99.90
53310;DHT22;39197;53.200;5.792;2023-02-01T00:27:04;6.60;99.90
53310;DHT22;39197;53.200;5.792;2023-02-01T00:29:30;6.50;99.90
53310;DHT22;39197;53.200;5.792;2023-02-01T00:31:55;6.50;99.90
53310;DHT22;39197;53.200;5.792;2023-02-01T00:34:21;6.50;99.90
53310;DHT22;39197;53.200;5.792;2023-02-01T00:36:47;6.60;99.90
53310;DHT22;39197;53.200;5.792;2023-02-01T00:39:13;6.80;99.90
53310;DHT22;39197;53.200;5.792;2023-02-01T00:41:38;6.60;99.90
53310;DHT22;39197;53.200;5.792;2023-02-01T00:44:05;6.60;99.90
53310;DHT22;39197;53.200;5.792;2023-02-01T00:46:31;6.60;99.90
53310;DHT22;39197;53.200;5.792;2023-02-01T00:48:57;6.60;99.90
53310;DHT22;39197;53.200;5.792;2023-02-01T00:51:25;6.60;99.90
53310;DHT22;39197;53.200;5.792;2023-02-01T00:53:52;6.60;99.90
53310;DHT22;39197;53.200;5.792;2023-02-01T00:56:17;6.60;99.90
53310;DHT22;39197;53.200;5.792;2023-02-01T00:58:43;6.60;99.90
53310;DHT22;39197;53.200;5.792;2023-02-01T01:01:12;6.60;99.90
53310;DHT22;39197;53.200;5.792;2023-02-01T01:03:44;6.60;99.90
53310;DHT22;39197;53.200;5.792;2023-02-01T01:06:13;6.70;99.90
53310;DHT22;39197;53.200;5.792;2023-02-01T01:08:40;6.70;99.90
53310;DHT22;39197;53.200;5.792;2023-02-01T01:11:13;6.70;99.90
53310;DHT22;39197;53.200;5.792;2023-02-01T01:13:40;6.70;99.90
53310;DHT22;39197;53.200;5.792;2023-02-01T01:16:07;6.70;99.90
53310;DHT22;39197;53.200;5.792;2023-02-01T01:18:33;6.70;99.90
53310;DHT22;39197;53.200;5.792;2023-02-01T01:20:59;6.70;99.90
53310;DHT22;39197;53.200;5.792;2023-02-01T01:23:26;6.70;99.90
53310;DHT22;39197;53.200;5.792;2023-02-01T01:25:52;6.70;99.90
53310;DHT22;39197;53.200;5.792;2023-02-01T01:28:17;6.70;99.90
53310;DHT22;39197;53.200;5.792;2023-02-01T01:30:43;6.70;99.90
53310;DHT22;39197;53.200;5.792;2023-02-01T01:33:09;6.60;99.90
53310;DHT22;39197;53.200;5.792;2023-02-01T01:35:35;6.60;99.90
53310;DHT22;39197;53.200;5.792;2023-02-01T01:38:01;6.50;99.90
53310;DHT22;39197;53.200;5.792;2023-02-01T01:40:28;6.50;99.90
53310;DHT22;39197;53.200;5.792;2023-02-01T01:42:54;6.60;99.90
53310;DHT22;39197;53.200;5.792;2023-02-01T01:45:30;6.50;99.90
53310;DHT22;39197;53.200;5.792;2023-02-01T01:48:01;6.50;99.90
53310;DHT22;39197;53.200;5.792;2023-02-01T01:50:33;6.50;99.90
53310;DHT22;39197;53.200;5.792;2023-02-01T01:53:02;6.50;99.90
53310;DHT22;39197;53.200;5.792;2023-02-01T01:55:32;6.40;99.90
53310;DHT22;39197;53.200;5.792;2023-02-01T01:58:03;6.40;99.90
53310;DHT22;39197;53.200;5.792;2023-02-01T02:00:31;6.40;99.90
53310;DHT22;39197;53.200;5.792;2023-02-01T02:03:03;6.40;99.90
53310;DHT22;39197;53.200;5.792;2023-02-01T02:05:32;6.40;99.90
53310;DHT22;39197;53.200;5.792;2023-02-01T02:07:59;6.40;99.90
53310;DHT22;39197;53.200;5.792;2023-02-01T02:10:26;6.40;99.90
53310;DHT22;39197;53.200;5.792;2023-02-01T02:13:14;6.50;99.90
53310;DHT22;39197;53.200;5.792;2023-02-01T02:16:04;6.50;99.90
53310;DHT22;39197;53.200;5.792;2023-02-01T02:18:41;6.40;99.90
53310;DHT22;39197;53.200;5.792;2023-02-01T02:21:16;6.50;99.90
53310;DHT22;39197;53.200;5.792;2023-02-01T02:36:07;6.60;99.90
53310;DHT22;39197;53.200;5.792;2023-02-01T02:38:58;6.60;99.90
53310;DHT22;39197;53.200;5.792;2023-02-01T02:41:46;6.60;99.90
53310;DHT22;39197;53.200;5.792;2023-02-01T02:44:47;6.60;99.90
53310;DHT22;39197;53.200;5.792;2023-02-01T02:50:02;6.60;99.90
53310;DHT22;39197;53.200;5.792;2023-02-01T02:52:54;6.70;99.90
53310;DHT22;39197;53.200;5.792;2023-02-01T02:55:42;6.70;99.90
53310;DHT22;39197;53.200;5.792;2023-02-01T02:58:10;6.70;99.90
53310;DHT22;39197;53.200;5.792;2023-02-01T03:00:56;6.70;99.90
53310;DHT22;39197;53.200;5.792;2023-02-01T03:03:41;6.70;99.90
53310;DHT22;39197;53.200;5.792;2023-02-01T03:06:26;6.60;99.90
53310;DHT22;39197;53.200;5.792;2023-02-01T03:08:54;6.60;99.90
53310;DHT22;39197;53.200;5.792;2023-02-01T03:11:23;6.60;99.90
53310;DHT22;39197;53.200;5.792;2023-02-01T03:14:10;6.70;99.90
53310;DHT22;39197;53.200;5.792;2023-02-01T03:16:51;6.70;99.90
53310;DHT22;39197;53.200;5.792;2023-02-01T03:19:29;6.60;99.90
53310;DHT22;39197;53.200;5.792;2023-02-01T03:22:01;6.60;99.90
53310;DHT22;39197;53.200;5.792;2023-02-01T03:24:37;6.60;99.90
53310;DHT22;39197;53.200;5.792;2023-02-01T03:27:20;6.60;99.90
53310;DHT22;39197;53.200;5.792;2023-02-01T03:29:52;6.70;99.90
53310;DHT22;39197;53.200;5.792;2023-02-01T03:32:19;6.60;99.90
53310;DHT22;39197;53.200;5.792;2023-02-01T03:34:47;6.60;99.90
53310;DHT22;39197;53.200;5.792;2023-02-01T03:37:20;6.70;99.90
53310;DHT22;39197;53.200;5.792;2023-02-01T03:40:01;6.70;99.90
53310;DHT22;39197;53.200;5.792;2023-02-01T03:42:32;6.70;99.90
53310;DHT22;39197;53.200;5.792;2023-02-01T03:45:10;6.60;99.90
53310;DHT22;39197;53.200;5.792;2023-02-01T03:47:40;6.60;99.90
53310;DHT22;39197;53.200;5.792;2023-02-01T03:50:10;6.60;99.90
53310;DHT22;39197;53.200;5.792;2023-02-01T03:55:09;6.60;99.90
53310;DHT22;39197;53.200;5.792;2023-02-01T03:57:38;6.60;99.90
53310;DHT22;39197;53.200;5.792;2023-02-01T04:00:16;6.50;99.90
53310;DHT22;39197;53.200;5.792;2023-02-01T04:02:42;6.50;99.90
53310;DHT22;39197;53.200;5.792;2023-02-01T04:05:08;6.50;99.90
53310;DHT22;39197;53.200;5.792;2023-02-01T04:07:34;6.50;99.90
53310;DHT22;39197;53.200;5.792;2023-02-01T04:10:00;6.40;99.90
53310;DHT22;39197;53.200;5.792;2023-02-01T04:12:25;6.40;99.90
53310;DHT22;39197;53.200;5.792;2023-02-01T04:14:51;6.40;99.90
53310;DHT22;39197;53.200;5.792;2023-02-01T04:17:17;6.40;99.90
53310;DHT22;39197;53.200;5.792;2023-02-01T04:19:42;6.40;99.90
53310;DHT22;39197;53.200;5.792;2023-02-01T04:22:08;6.40;99.90
53310;DHT22;39197;53.200;5.792;2023-02-01T04:24:33;6.40;99.90
53310;DHT22;39197;53.200;5.792;2023-02-01T04:26:59;6.30;99.90
53310;DHT22;39197;53.200;5.792;2023-02-01T04:29:24;6.20;99.90
53310;DHT22;39197;53.200;5.792;2023-02-01T04:31:50;6.20;99.90
53310;DHT22;39197;53.200;5.792;2023-02-01T04:34:16;6.20;99.90
53310;DHT22;39197;53.200;5.792;2023-02-01T04:36:41;6.20;99.90
53310;DHT22;39197;53.200;5.792;2023-02-01T04:39:09;6.10;99.90
53310;DHT22;39197;53.200;5.792;2023-02-01T04:41:34;6.20;99.90
53310;DHT22;39197;53.200;5.792;2023-02-01T04:44:00;6.20;99.90
53310;DHT22;39197;53.200;5.792;2023-02-01T04:46:26;6.20;99.90
53310;DHT22;39197;53.200;5.792;2023-02-01T04:48:51;6.20;99.90
53310;DHT22;39197;53.200;5.792;2023-02-01T04:51:17;6.20;99.90
53310;DHT22;39197;53.200;5.792;2023-02-01T04:53:44;6.20;99.90
53310;DHT22;39197;53.200;5.792;2023-02-01T04:56:09;6.30;99.90
53310;DHT22;39197;53.200;5.792;2023-02-01T04:58:35;6.30;99.90
53310;DHT22;39197;53.200;5.792;2023-02-01T05:01:05;6.40;99.90
53310;DHT22;39197;53.200;5.792;2023-02-01T05:03:32;6.40;99.90
53310;DHT22;39197;53.200;5.792;2023-02-01T05:05:58;6.40;99.90
53310;DHT22;39197;53.200;5.792;2023-02-01T05:08:24;6.40;99.90
53310;DHT22;39197;53.200;5.792;2023-02-01T05:10:51;6.40;99.90
53310;DHT22;39197;53.200;5.792;2023-02-01T05:13:16;6.50;99.90
53310;DHT22;39197;53.200;5.792;2023-02-01T05:16:01;6.50;99.90
53310;DHT22;39197;53.200;5.792;2023-02-01T05:18:26;6.40;99.90
53310;DHT22;39197;53.200;5.792;2023-02-01T05:20:52;6.50;99.90
53310;DHT22;39197;53.200;5.792;2023-02-01T05:23:17;6.50;99.90
53310;DHT22;39197;53.200;5.792;2023-02-01T05:25:43;6.40;99.90
53310;DHT22;39197;53.200;5.792;2023-02-01T05:28:09;6.30;99.90
53310;DHT22;39197;53.200;5.792;2023-02-01T05:30:34;6.40;99.90
53310;DHT22;39197;53.200;5.792;2023-02-01T05:33:01;6.30;99.90
53310;DHT22;39197;53.200;5.792;2023-02-01T05:35:27;6.30;99.90
53310;DHT22;39197;53.200;5.792;2023-02-01T05:37:52;6.30;99.90
53310;DHT22;39197;53.200;5.792;2023-02-01T05:40:18;6.30;99.90
53310;DHT22;39197;53.200;5.792;2023-02-01T05:42:44;6.40;99.90
53310;DHT22;39197;53.200;5.792;2023-02-01T05:45:09;6.30;99.90
53310;DHT22;39197;53.200;5.792;2023-02-01T05:47:35;6.30;99.90
53310;DHT22;39197;53.200;5.792;2023-02-01T05:50:01;6.20;99.90
53310;DHT22;39197;53.200;5.792;2023-02-01T05:52:27;6.20;99.90
53310;DHT22;39197;53.200;5.792;2023-02-01T05:54:52;6.20;99.90
53310;DHT22;39197;53.200;5.792;2023-02-01T05:57:18;6.10;99.90
53310;DHT22;39197;53.200;5.792;2023-02-01T05:59:43;6.20;99.90
53310;DHT22;39197;53.200;5.792;2023-02-01T06:02:14;6.10;99.90
53310;DHT22;39197;53.200;5.792;2023-02-01T06:04:40;6.10;99.90
53310;DHT22;39197;53.200;5.792;2023-02-01T06:07:07;6.10;99.90
53310;DHT22;39197;53.200;5.792;2023-02-01T06:09:34;6.10;99.90
53310;DHT22;39197;53.200;5.792;2023-02-01T06:11:59;6.10;99.90
53310;DHT22;39197;53.200;5.792;2023-02-01T06:14:26;6.20;99.90
53310;DHT22;39197;53.200;5.792;2023-02-01T06:16:53;6.20;99.90
53310;DHT22;39197;53.200;5.792;2023-02-01T06:19:19;6.30;99.90
53310;DHT22;39197;53.200;5.792;2023-02-01T06:21:45;6.30;99.90
53310;DHT22;39197;53.200;5.792;2023-02-01T06:24:12;6.30;99.90
53310;DHT22;39197;53.200;5.792;2023-02-01T06:26:38;6.30;99.90
53310;DHT22;39197;53.200;5.792;2023-02-01T06:29:06;6.30;99.90
53310;DHT22;39197;53.200;5.792;2023-02-01T06:31:32;6.40;99.90
53310;DHT22;39197;53.200;5.792;2023-02-01T06:33:58;6.30;99.90
53310;DHT22;39197;53.200;5.792;2023-02-01T06:36:23;6.30;99.90
53310;DHT22;39197;53.200;5.792;2023-02-01T06:38:49;6.30;99.90
53310;DHT22;39197;53.200;5.792;2023-02-01T06:41:15;6.40;99.90
53310;DHT22;39197;53.200;5.792;2023-02-01T06:43:41;6.30;99.90
53310;DHT22;39197;53.200;5.792;2023-02-01T06:46:11;6.30;99.90
53310;DHT22;39197;53.200;5.792;2023-02-01T06:48:37;6.30;99.90
53310;DHT22;39197;53.200;5.792;2023-02-01T06:51:03;6.20;99.90
53310;DHT22;39197;53.200;5.792;2023-02-01T06:53:29;6.20;99.90
53310;DHT22;39197;53.200;5.792;2023-02-01T06:56:00;6.30;99.90
53310;DHT22;39197;53.200;5.792;2023-02-01T06:58:30;6.20;99.90
53310;DHT22;39197;53.200;5.792;2023-02-01T07:00:56;6.20;99.90
53310;DHT22;39197;53.200;5.792;2023-02-01T07:03:22;6.20;99.90
53310;DHT22;39197;53.200;5.792;2023-02-01T07:05:47;6.20;99.90
53310;DHT22;39197;53.200;5.792;2023-02-01T07:08:13;6.20;99.90
53310;DHT22;39197;53.200;5.792;2023-02-01T07:10:39;6.20;99.90
53310;DHT22;39197;53.200;5.792;2023-02-01T07:13:04;6.10;99.90
53310;DHT22;39197;53.200;5.792;2023-02-01T07:15:30;6.00;99.90
53310;DHT22;39197;53.200;5.792;2023-02-01T07:17:56;6.10;99.90
53310;DHT22;39197;53.200;5.792;2023-02-01T07:20:23;6.20;99.90
53310;DHT22;39197;53.200;5.792;2023-02-01T07:22:48;6.00;99.90
53310;DHT22;39197;53.200;5.792;2023-02-01T07:25:14;6.00;99.90
53310;DHT22;39197;53.200;5.792;2023-02-01T07:27:40;6.10;99.90
53310;DHT22;39197;53.200;5.792;2023-02-01T07:30:06;6.10;99.90
53310;DHT22;39197;53.200;5.792;2023-02-01T07:32:32;6.10;99.90
53310;DHT22;39197;53.200;5.792;2023-02-01T07:34:58;6.10;99.90
53310;DHT22;39197;53.200;5.792;2023-02-01T07:37:24;6.20;99.90
53310;DHT22;39197;53.200;5.792;2023-02-01T07:39:52;6.30;99.90
53310;DHT22;39197;53.200;5.792;2023-02-01T07:42:18;6.20;99.90
53310;DHT22;39197;53.200;5.792;2023-02-01T07:44:44;6.20;99.90
53310;DHT22;39197;53.200;5.792;2023-02-01T07:47:10;6.20;99.90
53310;DHT22;39197;53.200;5.792;2023-02-01T07:49:35;6.20;99.90
53310;DHT22;39197;53.200;5.792;2023-02-01T07:52:01;6.20;99.90
53310;DHT22;39197;53.200;5.792;2023-02-01T07:54:26;6.20;99.90
53310;DHT22;39197;53.200;5.792;2023-02-01T07:56:52;6.20;99.90
53310;DHT22;39197;53.200;5.792;2023-02-01T07:59:18;6.20;99.90
53310;DHT22;39197;53.200;5.792;2023-02-01T08:01:43;6.20;99.90
53310;DHT22;39197;53.200;5.792;2023-02-01T08:04:12;6.30;99.90
53310;DHT22;39197;53.200;5.792;2023-02-01T08:06:38;6.20;99.90
53310;DHT22;39197;53.200;5.792;2023-02-01T08:09:05;6.20;99.90
53310;DHT22;39197;53.200;5.792;2023-02-01T08:11:31;6.30;99.90
53310;DHT22;39197;53.200;5.792;2023-02-01T08:13:58;6.40;99.90
53310;DHT22;39197;53.200;5.792;2023-02-01T08:16:24;6.40;99.90
53310;DHT22;39197;53.200;5.792;2023-02-01T08:18:51;6.40;99.90
53310;DHT22;39197;53.200;5.792;2023-02-01T08:21:19;6.40;99.90
53310;DHT22;39197;53.200;5.792;2023-02-01T08:23:45;6.50;99.90
53310;DHT22;39197;53.200;5.792;2023-02-01T08:26:19;6.50;99.90
53310;DHT22;39197;53.200;5.792;2023-02-01T08:28:51;6.50;99.90
53310;DHT22;39197;53.200;5.792;2023-02-01T08:31:18;6.50;99.90
53310;DHT22;39197;53.200;5.792;2023-02-01T08:33:49;6.50;99.90
53310;DHT22;39197;53.200;5.792;2023-02-01T08:36:15;6.60;99.90
53310;DHT22;39197;53.200;5.792;2023-02-01T08:38:40;6.70;99.90
53310;DHT22;39197;53.200;5.792;2023-02-01T08:41:18;6.60;99.90
53310;DHT22;39197;53.200;5.792;2023-02-01T08:43:44;6.60;99.90
53310;DHT22;39197;53.200;5.792;2023-02-01T08:46:10;6.60;99.90
53310;DHT22;39197;53.200;5.792;2023-02-01T08:48:37;6.60;99.90
53310;DHT22;39197;53.200;5.792;2023-02-01T08:51:05;6.60;99.90
53310;DHT22;39197;53.200;5.792;2023-02-01T08:53:31;6.60;99.90
53310;DHT22;39197;53.200;5.792;2023-02-01T08:55:57;6.60;99.90
53310;DHT22;39197;53.200;5.792;2023-02-01T08:58:23;6.60;99.90
53310;DHT22;39197;53.200;5.792;2023-02-01T09:00:48;6.70;99.90
53310;DHT22;39197;53.200;5.792;2023-02-01T09:03:15;6.70;99.90
53310;DHT22;39197;53.200;5.792;2023-02-01T09:05:41;6.70;99.90
53310;DHT22;39197;53.200;5.792;2023-02-01T09:08:07;6.70;99.90
53310;DHT22;39197;53.200;5.792;2023-02-01T09:10:33;6.70;99.90
53310;DHT22;39197;53.200;5.792;2023-02-01T09:12:59;6.70;99.90
53310;DHT22;39197;53.200;5.792;2023-02-01T09:15:25;6.70;99.90
53310;DHT22;39197;53.200;5.792;2023-02-01T09:17:50;6.80;99.90
53310;DHT22;39197;53.200;5.792;2023-02-01T09:20:16;6.70;99.90
53310;DHT22;39197;53.200;5.792;2023-02-01T09:22:42;6.70;99.90
53310;DHT22;39197;53.200;5.792;2023-02-01T09:25:08;6.70;99.90
53310;DHT22;39197;53.200;5.792;2023-02-01T09:27:34;6.70;99.90
53310;DHT22;39197;53.200;5.792;2023-02-01T09:30:00;6.70;99.90
53310;DHT22;39197;53.200;5.792;2023-02-01T09:32:25;6.70;99.90
53310;DHT22;39197;53.200;5.792;2023-02-01T09:34:52;6.80;99.90
53310;DHT22;39197;53.200;5.792;2023-02-01T09:37:18;6.70;99.90
53310;DHT22;39197;53.200;5.792;2023-02-01T09:39:44;6.70;99.90
53310;DHT22;39197;53.200;5.792;2023-02-01T09:42:49;6.60;99.90
53310;DHT22;39197;53.200;5.792;2023-02-01T09:47:35;6.70;99.90
53310;DHT22;39197;53.200;5.792;2023-02-01T09:50:17;6.60;99.90
53310;DHT22;39197;53.200;5.792;2023-02-01T09:53:30;6.70;99.90
53310;DHT22;39197;53.200;5.792;2023-02-01T09:55:59;6.70;99.90
53310;DHT22;39197;53.200;5.792;2023-02-01T09:58:35;6.70;99.90
53310;DHT22;39197;53.200;5.792;2023-02-01T10:01:04;6.70;99.90
53310;DHT22;39197;53.200;5.792;2023-02-01T10:03:35;6.70;99.90
53310;DHT22;39197;53.200;5.792;2023-02-01T10:14:44;7.00;99.90
53310;DHT22;39197;53.200;5.792;2023-02-01T10:17:43;7.10;99.90
53310;DHT22;39197;53.200;5.792;2023-02-01T10:25:55;7.40;99.90
53310;DHT22;39197;53.200;5.792;2023-02-01T10:28:22;7.40;99.90
53310;DHT22;39197;53.200;5.792;2023-02-01T10:30:52;7.30;99.90
53310;DHT22;39197;53.200;5.792;2023-02-01T10:33:27;7.50;99.90
53310;DHT22;39197;53.200;5.792;2023-02-01T10:38:32;7.40;99.90
53310;DHT22;39197;53.200;5.792;2023-02-01T10:41:03;7.50;99.90
53310;DHT22;39197;53.200;5.792;2023-02-01T10:43:30;7.50;99.90
53310;DHT22;39197;53.200;5.792;2023-02-01T10:45:56;7.50;99.90
53310;DHT22;39197;53.200;5.792;2023-02-01T10:48:22;7.40;99.90
53310;DHT22;39197;53.200;5.792;2023-02-01T10:51:02;7.50;99.90
53310;DHT22;39197;53.200;5.792;2023-02-01T10:53:55;7.50;99.90
53310;DHT22;39197;53.200;5.792;2023-02-01T10:56:26;7.50;99.90
53310;DHT22;39197;53.200;5.792;2023-02-01T10:58:59;7.60;99.90
53310;DHT22;39197;53.200;5.792;2023-02-01T11:01:30;7.60;99.90
53310;DHT22;39197;53.200;5.792;2023-02-01T11:04:03;7.60;99.90
53310;DHT22;39197;53.200;5.792;2023-02-01T11:11:28;7.40;99.90
53310;DHT22;39197;53.200;5.792;2023-02-01T11:13:59;7.40;99.90
53310;DHT22;39197;53.200;5.792;2023-02-01T11:16:37;7.40;99.90
53310;DHT22;39197;53.200;5.792;2023-02-01T11:19:04;7.40;99.90
53310;DHT22;39197;53.200;5.792;2023-02-01T11:21:30;7.50;99.90
53310;DHT22;39197;53.200;5.792;2023-02-01T11:24:01;7.50;99.90
53310;DHT22;39197;53.200;5.792;2023-02-01T11:26:28;7.50;99.90
53310;DHT22;39197;53.200;5.792;2023-02-01T11:29:03;7.40;99.90
53310;DHT22;39197;53.200;5.792;2023-02-01T11:31:30;7.40;99.90
53310;DHT22;39197;53.200;5.792;2023-02-01T11:34:11;7.40;99.90
53310;DHT22;39197;53.200;5.792;2023-02-01T11:36:38;7.50;99.90
53310;DHT22;39197;53.200;5.792;2023-02-01T11:42:05;7.50;99.90
53310;DHT22;39197;53.200;5.792;2023-02-01T11:44:39;7.50;99.90
53310;DHT22;39197;53.200;5.792;2023-02-01T11:47:30;7.60;99.90
53310;DHT22;39197;53.200;5.792;2023-02-01T11:50:08;7.60;99.90
53310;DHT22;39197;53.200;5.792;2023-02-01T11:55:44;7.80;99.90
53310;DHT22;39197;53.200;5.792;2023-02-01T12:00:49;8.10;99.90
53310;DHT22;39197;53.200;5.792;2023-02-01T12:08:52;8.00;99.90
53310;DHT22;39197;53.200;5.792;2023-02-01T12:29:26;7.80;99.90
53310;DHT22;39197;53.200;5.792;2023-02-01T12:32:20;7.90;99.90
53310;DHT22;39197;53.200;5.792;2023-02-01T12:41:00;8.10;99.90
53310;DHT22;39197;53.200;5.792;2023-02-01T12:46:28;8.00;99.90
53310;DHT22;39197;53.200;5.792;2023-02-01T12:49:19;8.10;99.90
53310;DHT22;39197;53.200;5.792;2023-02-01T12:51:54;8.10;99.90
53310;DHT22;39197;53.200;5.792;2023-02-01T12:57:17;8.20;99.90
53310;DHT22;39197;53.200;5.792;2023-02-01T13:05:34;8.00;99.90
53310;DHT22;39197;53.200;5.792;2023-02-01T13:08:10;8.00;99.90
53310;DHT22;39197;53.200;5.792;2023-02-01T13:10:54;7.90;99.90
53310;DHT22;39197;53.200;5.792;2023-02-01T13:18:39;7.90;99.90
53310;DHT22;39197;53.200;5.792;2023-02-01T13:21:18;7.80;99.90
53310;DHT22;39197;53.200;5.792;2023-02-01T13:23:47;7.90;99.90
53310;DHT22;39197;53.200;5.792;2023-02-01T13:26:13;7.80;99.90
53310;DHT22;39197;53.200;5.792;2023-02-01T13:29:04;7.80;99.90
53310;DHT22;39197;53.200;5.792;2023-02-01T13:42:22;8.00;99.90
53310;DHT22;39197;53.200;5.792;2023-02-01T13:44:59;8.10;99.90
53310;DHT22;39197;53.200;5.792;2023-02-01T13:47:38;8.30;99.90
53310;DHT22;39197;53.200;5.792;2023-02-01T13:53:01;8.50;99.90
53310;DHT22;39197;53.200;5.792;2023-02-01T13:55:38;8.40;99.90
53310;DHT22;39197;53.200;5.792;2023-02-01T13:58:15;8.50;99.90
53310;DHT22;39197;53.200;5.792;2023-02-01T14:00:42;8.30;99.90
53310;DHT22;39197;53.200;5.792;2023-02-01T14:03:15;8.20;99.90
53310;DHT22;39197;53.200;5.792;2023-02-01T14:08:12;8.10;99.90
53310;DHT22;39197;53.200;5.792;2023-02-01T14:13:34;8.10;99.90
53310;DHT22;39197;53.200;5.792;2023-02-01T14:23:45;8.20;99.90
53310;DHT22;39197;53.200;5.792;2023-02-01T14:26:15;8.20;99.90
53310;DHT22;39197;53.200;5.792;2023-02-01T14:28:49;8.10;99.90
53310;DHT22;39197;53.200;5.792;2023-02-01T14:31:40;8.00;99.90
53310;DHT22;39197;53.200;5.792;2023-02-01T14:36:54;8.20;99.90
53310;DHT22;39197;53.200;5.792;2023-02-01T14:42:04;8.30;99.90
53310;DHT22;39197;53.200;5.792;2023-02-01T14:44:35;8.20;99.90
53310;DHT22;39197;53.200;5.792;2023-02-01T14:47:29;8.20;99.90
53310;DHT22;39197;53.200;5.792;2023-02-01T14:50:26;8.20;99.90
53310;DHT22;39197;53.200;5.792;2023-02-01T14:55:51;8.10;99.90
53310;DHT22;39197;53.200;5.792;2023-02-01T15:00:59;8.00;99.90
53310;DHT22;39197;53.200;5.792;2023-02-01T15:06:23;8.10;99.90
53310;DHT22;39197;53.200;5.792;2023-02-01T15:08:53;8.20;99.90
53310;DHT22;39197;53.200;5.792;2023-02-01T15:11:20;8.20;99.90
53310;DHT22;39197;53.200;5.792;2023-02-01T15:13:51;8.10;99.90
53310;DHT22;39197;53.200;5.792;2023-02-01T15:16:20;8.20;99.90
53310;DHT22;39197;53.200;5.792;2023-02-01T15:18:47;8.10;99.90
53310;DHT22;39197;53.200;5.792;2023-02-01T15:21:19;8.00;99.90
53310;DHT22;39197;53.200;5.792;2023-02-01T15:23:45;7.80;99.90
53310;DHT22;39197;53.200;5.792;2023-02-01T15:26:28;7.90;99.90
53310;DHT22;39197;53.200;5.792;2023-02-01T15:28:57;7.80;99.90
53310;DHT22;39197;53.200;5.792;2023-02-01T15:31:37;8.00;99.90
53310;DHT22;39197;53.200;5.792;2023-02-01T15:34:03;7.90;99.90
53310;DHT22;39197;53.200;5.792;2023-02-01T15:36:29;7.90;99.90
53310;DHT22;39197;53.200;5.792;2023-02-01T15:39:17;7.80;99.90
53310;DHT22;39197;53.200;5.792;2023-02-01T15:41:49;7.70;99.90
53310;DHT22;39197;53.200;5.792;2023-02-01T15:44:27;7.70;99.90
53310;DHT22;39197;53.200;5.792;2023-02-01T15:46:54;7.70;99.90
53310;DHT22;39197;53.200;5.792;2023-02-01T15:49:30;7.50;99.90
53310;DHT22;39197;53.200;5.792;2023-02-01T15:51:58;7.40;99.90
53310;DHT22;39197;53.200;5.792;2023-02-01T15:54:43;7.40;99.90
53310;DHT22;39197;53.200;5.792;2023-02-01T15:57:11;7.40;99.90
53310;DHT22;39197;53.200;5.792;2023-02-01T15:59:42;7.30;99.90
53310;DHT22;39197;53.200;5.792;2023-02-01T16:02:51;7.30;99.90
53310;DHT22;39197;53.200;5.792;2023-02-01T16:08:25;7.20;99.90
53310;DHT22;39197;53.200;5.792;2023-02-01T16:10:53;7.20;99.90
53310;DHT22;39197;53.200;5.792;2023-02-01T16:13:20;7.20;99.90
53310;DHT22;39197;53.200;5.792;2023-02-01T16:15:46;7.20;99.90
53310;DHT22;39197;53.200;5.792;2023-02-01T16:18:13;7.20;99.90
53310;DHT22;39197;53.200;5.792;2023-02-01T16:20:40;7.20;99.90
53310;DHT22;39197;53.200;5.792;2023-02-01T16:23:07;7.20;99.90
53310;DHT22;39197;53.200;5.792;2023-02-01T16:25:33;7.10;99.90
53310;DHT22;39197;53.200;5.792;2023-02-01T16:27:59;7.10;99.90
53310;DHT22;39197;53.200;5.792;2023-02-01T16:30:25;7.10;99.90
53310;DHT22;39197;53.200;5.792;2023-02-01T16:32:55;7.10;99.90
53310;DHT22;39197;53.200;5.792;2023-02-01T16:35:25;7.10;99.90
53310;DHT22;39197;53.200;5.792;2023-02-01T16:37:51;7.10;99.90
53310;DHT22;39197;53.200;5.792;2023-02-01T16:40:19;7.10;99.90
53310;DHT22;39197;53.200;5.792;2023-02-01T16:42:49;7.00;99.90
53310;DHT22;39197;53.200;5.792;2023-02-01T16:45:15;6.90;99.90
53310;DHT22;39197;53.200;5.792;2023-02-01T16:47:48;6.90;99.90
53310;DHT22;39197;53.200;5.792;2023-02-01T16:50:18;6.80;99.90
53310;DHT22;39197;53.200;5.792;2023-02-01T16:52:45;6.90;99.90
53310;DHT22;39197;53.200;5.792;2023-02-01T16:55:16;6.80;99.90
53310;DHT22;39197;53.200;5.792;2023-02-01T16:57:43;6.80;99.90
53310;DHT22;39197;53.200;5.792;2023-02-01T17:00:11;6.80;99.90
53310;DHT22;39197;53.200;5.792;2023-02-01T17:02:41;6.80;99.90
53310;DHT22;39197;53.200;5.792;2023-02-01T17:05:08;6.80;99.90
53310;DHT22;39197;53.200;5.792;2023-02-01T17:07:35;6.70;99.90
53310;DHT22;39197;53.200;5.792;2023-02-01T17:10:01;6.70;99.90
53310;DHT22;39197;53.200;5.792;2023-02-01T17:12:30;6.70;99.90
53310;DHT22;39197;53.200;5.792;2023-02-01T17:14:57;6.70;99.90
53310;DHT22;39197;53.200;5.792;2023-02-01T17:17:25;6.70;99.90
53310;DHT22;39197;53.200;5.792;2023-02-01T17:19:52;6.70;99.90
53310;DHT22;39197;53.200;5.792;2023-02-01T17:22:22;6.70;99.90
53310;DHT22;39197;53.200;5.792;2023-02-01T17:24:48;6.70;99.90
53310;DHT22;39197;53.200;5.792;2023-02-01T17:27:15;6.70;99.90
53310;DHT22;39197;53.200;5.792;2023-02-01T17:29:41;6.80;99.90
53310;DHT22;39197;53.200;5.792;2023-02-01T17:32:18;6.80;99.90
53310;DHT22;39197;53.200;5.792;2023-02-01T17:34:44;6.80;99.90
53310;DHT22;39197;53.200;5.792;2023-02-01T17:37:32;6.80;99.90
53310;DHT22;39197;53.200;5.792;2023-02-01T17:39:58;6.90;99.90
53310;DHT22;39197;53.200;5.792;2023-02-01T17:42:25;6.80;99.90
53310;DHT22;39197;53.200;5.792;2023-02-01T17:44:57;6.80;99.90
53310;DHT22;39197;53.200;5.792;2023-02-01T17:47:23;6.80;99.90
53310;DHT22;39197;53.200;5.792;2023-02-01T17:49:48;6.80;99.90
53310;DHT22;39197;53.200;5.792;2023-02-01T17:52:22;6.70;99.90
53310;DHT22;39197;53.200;5.792;2023-02-01T17:54:48;6.80;99.90
53310;DHT22;39197;53.200;5.792;2023-02-01T17:57:15;6.70;99.90
53310;DHT22;39197;53.200;5.792;2023-02-01T17:59:41;6.70;99.90
53310;DHT22;39197;53.200;5.792;2023-02-01T18:02:25;6.70;99.90
53310;DHT22;39197;53.200;5.792;2023-02-01T18:04:51;6.60;99.90
53310;DHT22;39197;53.200;5.792;2023-02-01T18:07:17;6.60;99.90
53310;DHT22;39197;53.200;5.792;2023-02-01T18:09:43;6.60;99.90
53310;DHT22;39197;53.200;5.792;2023-02-01T18:12:16;6.60;99.90
53310;DHT22;39197;53.200;5.792;2023-02-01T18:14:43;6.60;99.90
53310;DHT22;39197;53.200;5.792;2023-02-01T18:17:08;6.60;99.90
53310;DHT22;39197;53.200;5.792;2023-02-01T18:19:34;6.50;99.90
53310;DHT22;39197;53.200;5.792;2023-02-01T18:22:01;6.50;99.90